createdAt,value
2019-01-02T00:00:37.451Z,98233.30
2019-01-02T00:05:33.282Z,98244.80
2019-01-02T00:10:36.377Z,98270.95
2019-01-02T00:15:33.153Z,98271.00
2019-01-02T00:20:30.312Z,98266.98
2019-01-02T00:26:24.705Z,98269.92
2019-01-02T00:31:37.245Z,98260.11
2019-01-02T00:44:50.663Z,98252.88
2019-01-02T01:29:11.124Z,98281.89
2019-01-02T01:34:48.764Z,98284.03
2019-01-02T01:39:45.668Z,98277.42
2019-01-02T01:44:41.794Z,98271.68
2019-01-02T01:49:38.347Z,98275.91
2019-01-02T01:54:34.732Z,98289.39
2019-01-02T01:59:31.758Z,98276.80
2019-01-02T02:04:28.820Z,98278.45
2019-01-02T02:09:27.280Z,98284.69
2019-01-02T02:14:24.509Z,98290.11
2019-01-02T02:19:22.348Z,98291.58
2019-01-02T02:24:18.480Z,98308.56
2019-01-02T02:29:14.502Z,98314.72
2019-01-02T02:34:10.709Z,98315.84
2019-01-02T02:39:10.493Z,98326.37
2019-01-02T02:44:07.587Z,98331.53
2019-01-02T02:49:03.889Z,98344.88
2019-01-02T02:54:00.147Z,98347.78
2019-01-02T02:58:58.500Z,98321.86
2019-01-02T03:03:54.486Z,98310.64
2019-01-02T03:08:51.216Z,98309.34
2019-01-02T03:13:48.702Z,98314.03
2019-01-02T03:18:46.025Z,98306.51
2019-01-02T03:23:43.558Z,98305.41
2019-01-02T03:28:42.546Z,98304.91
2019-01-02T03:33:39.314Z,98306.66
2019-01-02T03:38:36.996Z,98306.39
2019-01-02T03:43:32.893Z,98292.30
2019-01-02T03:48:36.445Z,98303.97
2019-01-02T03:53:32.979Z,98292.99
2019-01-02T03:58:29.153Z,98302.50
2019-01-02T04:03:25.043Z,98327.13
2019-01-02T04:08:21.228Z,98322.90
2019-01-02T04:13:17.968Z,98336.81
2019-01-02T04:18:13.881Z,98361.23
2019-01-02T04:23:10.624Z,98353.80
2019-01-02T04:28:06.851Z,98348.02
2019-01-02T04:33:02.685Z,98365.00
2019-01-02T04:37:58.552Z,98370.72
2019-01-02T04:42:54.406Z,98372.02
2019-01-02T04:47:50.309Z,98378.49
2019-01-02T04:52:46.129Z,98373.30
2019-01-02T04:57:42.399Z,98365.35
2019-01-02T05:02:38.332Z,98375.05
2019-01-02T05:07:35.329Z,98379.03
2019-01-02T05:12:31.754Z,98383.22
2019-01-02T05:17:27.613Z,98388.49
2019-01-02T05:22:24.919Z,98397.46
2019-01-02T05:27:20.789Z,98395.95
2019-01-02T05:32:16.691Z,98398.36
2019-01-02T05:37:27.436Z,98397.28
2019-01-02T05:42:23.377Z,98409.70
2019-01-02T05:47:19.433Z,98423.73
2019-01-02T05:52:16.084Z,98434.31
2019-01-02T05:57:12.208Z,98445.06
2019-01-02T06:02:08.685Z,98450.16
2019-01-02T06:07:04.721Z,98449.94
2019-01-02T06:12:08.640Z,98465.03
2019-01-02T06:17:04.726Z,98462.18
2019-01-02T06:22:00.806Z,98476.06
2019-01-02T06:26:56.840Z,98492.66
2019-01-02T06:31:52.707Z,98483.68
2019-01-02T06:36:48.600Z,98471.63
2019-01-02T06:41:44.803Z,98464.21
2019-01-02T06:46:40.941Z,98466.67
2019-01-02T06:51:36.773Z,98456.56
2019-01-02T06:56:32.689Z,98456.08
2019-01-02T07:01:29.046Z,98468.55
2019-01-02T07:06:25.199Z,98467.13
2019-01-02T07:11:21.183Z,98468.42
2019-01-02T07:16:17.109Z,98465.52
2019-01-02T07:21:13.202Z,98468.14
2019-01-02T07:26:09.078Z,98475.22
2019-01-02T07:31:05.278Z,98487.93
2019-01-02T07:37:06.573Z,98495.50
2019-01-02T07:42:53.629Z,98504.39
2019-01-02T07:49:13.880Z,98506.58
2019-01-02T07:55:08.247Z,98523.41
2019-01-02T08:01:02.370Z,98523.50
2019-01-02T08:07:02.421Z,98537.37
2019-01-02T08:12:45.658Z,98539.03
2019-01-02T08:18:15.498Z,98530.00
2019-01-02T08:24:16.431Z,98525.03
2019-01-02T08:30:06.029Z,98525.11
2019-01-02T08:36:17.701Z,98522.23
2019-01-02T08:42:09.488Z,98515.20
2019-01-02T08:48:26.676Z,98520.38
2019-01-02T08:54:03.954Z,98529.14
2019-01-02T09:00:08.091Z,98526.52
2019-01-02T09:05:54.149Z,98549.83
2019-01-02T09:12:04.559Z,98547.03
2019-01-02T09:18:00.536Z,98560.23
2019-01-02T09:23:52.171Z,98560.33
2019-01-02T09:29:48.897Z,98560.81
2019-01-02T09:35:35.322Z,98569.14
2019-01-02T09:41:30.114Z,98573.88
2019-01-02T09:47:22.176Z,98583.03
2019-01-02T09:53:59.168Z,98590.20
2019-01-02T10:01:52.786Z,98578.82
2019-01-02T10:06:02.377Z,98582.31
2019-01-02T10:12:04.258Z,98580.20
2019-01-02T10:18:20.336Z,98575.42
2019-01-02T10:24:38.398Z,98577.65
2019-01-02T10:31:30.823Z,98574.39
2019-01-02T10:50:47.533Z,98555.58
2019-01-02T10:56:50.156Z,98547.62
2019-01-02T11:02:41.373Z,98538.54
2019-01-02T11:08:37.876Z,98528.22
2019-01-02T11:14:58.733Z,98528.53
2019-01-02T11:22:53.441Z,98530.50
2019-01-02T11:27:30.890Z,98518.30
2019-01-02T11:33:41.785Z,98517.98
2019-01-02T11:39:16.970Z,98520.22
2019-01-02T11:45:20.928Z,98509.58
2019-01-02T12:02:37.876Z,98485.10
2019-01-02T12:07:35.021Z,98479.83
2019-01-02T12:12:31.204Z,98474.47
2019-01-02T12:17:27.058Z,98465.14
2019-01-02T12:22:22.956Z,98464.84
2019-01-02T12:27:18.715Z,98456.56
2019-01-02T12:32:14.662Z,98452.77
2019-01-02T12:37:10.464Z,98445.41
2019-01-02T12:42:07.931Z,98444.52
2019-01-02T12:47:03.860Z,98437.15
2019-01-02T12:52:00.097Z,98434.64
2019-01-02T12:56:56.052Z,98448.81
2019-01-02T13:03:24.027Z,98458.25
2019-01-02T13:09:42.921Z,98450.58
2019-01-02T13:16:32.304Z,98449.81
2019-01-02T13:22:31.757Z,98443.45
2019-01-02T13:29:06.482Z,98443.94
2019-01-02T13:34:53.094Z,98435.96
2019-01-02T13:41:04.728Z,98435.11
2019-01-02T13:47:08.807Z,98426.78
2019-01-02T13:52:26.872Z,98436.19
2019-01-02T14:09:20.271Z,98438.91
2019-01-02T14:27:09.286Z,98473.06
2019-01-02T14:32:24.823Z,98474.25
2019-01-02T14:49:54.361Z,98483.09
2019-01-02T14:54:50.290Z,98483.77
2019-01-02T14:59:46.229Z,98474.80
2019-01-02T15:04:42.030Z,98470.06
2019-01-02T15:09:37.805Z,98474.14
2019-01-02T15:14:34.136Z,98502.48
2019-01-02T15:19:29.965Z,98532.03
2019-01-02T15:24:25.914Z,98514.91
2019-01-02T15:29:21.918Z,98518.55
2019-01-02T15:34:17.992Z,98521.48
2019-01-02T15:39:13.905Z,98527.50
2019-01-02T15:44:09.912Z,98525.11
2019-01-02T15:49:05.815Z,98524.02
2019-01-02T15:54:01.713Z,98525.03
2019-01-02T15:58:58.503Z,98527.62
2019-01-02T16:03:54.402Z,98539.52
2019-01-02T16:08:50.143Z,98552.15
2019-01-02T16:13:46.037Z,98565.06
2019-01-02T16:18:41.894Z,98565.17
2019-01-02T16:23:37.757Z,98576.34
2019-01-02T16:28:33.773Z,98588.81
2019-01-02T16:33:29.746Z,98587.66
2019-01-02T16:45:34.500Z,98595.29
2019-01-02T17:03:21.366Z,98609.56
2019-01-02T17:08:17.557Z,98611.44
2019-01-02T17:13:14.522Z,98622.16
2019-01-02T17:18:10.363Z,98618.40
2019-01-02T17:23:06.269Z,98627.86
2019-01-02T17:28:02.075Z,98636.25
2019-01-02T17:33:00.399Z,98642.28
2019-01-02T17:43:04.601Z,98653.42
2019-01-02T17:48:00.388Z,98653.42
2019-01-02T17:52:56.244Z,98662.61
2019-01-02T17:57:51.996Z,98673.89
2019-01-02T18:02:48.026Z,98683.44
2019-01-02T18:07:43.888Z,98688.66
2019-01-02T18:12:39.659Z,98687.38
2019-01-02T18:17:35.402Z,98699.65
2019-01-02T18:22:31.192Z,98707.94
2019-01-02T18:27:27.068Z,98716.86
2019-01-02T18:32:23.127Z,98721.23
2019-01-02T18:37:19.003Z,98720.81
2019-01-02T18:42:14.825Z,98734.62
2019-01-02T18:47:10.686Z,98748.84
2019-01-02T18:52:06.469Z,98749.71
2019-01-02T18:57:04.140Z,98759.97
2019-01-02T19:02:00.109Z,98767.50
2019-01-02T19:06:55.868Z,98767.09
2019-01-02T19:11:54.311Z,98771.89
2019-01-02T19:16:50.073Z,98779.25
2019-01-02T19:21:46.614Z,98787.45
2019-01-02T19:26:42.527Z,98789.66
2019-01-02T19:31:39.183Z,98793.08
2019-01-02T19:36:34.985Z,98802.66
2019-01-02T19:41:30.866Z,98804.00
2019-01-02T19:46:26.992Z,98814.78
2019-01-02T19:51:22.758Z,98811.33
2019-01-02T19:56:18.653Z,98812.67
2019-01-02T20:01:14.734Z,98820.83
2019-01-02T20:11:20.063Z,98825.13
2019-01-02T20:16:16.072Z,98823.85
2019-01-02T20:21:12.021Z,98821.27
2019-01-02T20:26:08.858Z,98819.59
2019-01-02T20:31:04.679Z,98831.67
2019-01-02T20:36:01.915Z,98828.28
2019-01-02T20:40:57.761Z,98822.76
2019-01-02T20:45:53.748Z,98818.03
2019-01-02T20:50:49.573Z,98821.47
2019-01-02T20:55:45.368Z,98826.19
2019-01-02T21:00:41.184Z,98830.06
2019-01-02T21:05:36.978Z,98818.82
2019-01-02T21:10:33.056Z,98823.23
2019-01-02T21:15:28.860Z,98822.84
2019-01-02T21:20:24.661Z,98824.14
2019-01-02T21:25:20.526Z,98821.54
2019-01-02T21:30:18.956Z,98818.54
2019-01-02T21:35:14.957Z,98822.47
2019-01-02T21:40:11.484Z,98831.47
2019-01-02T21:45:08.764Z,98828.47
2019-01-02T21:50:05.264Z,98835.81
2019-01-02T21:55:01.044Z,98835.41
2019-01-02T21:59:57.351Z,98835.02
2019-01-02T22:04:53.237Z,98841.42
2019-01-02T22:09:51.531Z,98831.98
2019-01-02T22:14:47.569Z,98837.53
2019-01-02T22:19:44.060Z,98840.55
2019-01-02T22:24:39.784Z,98845.76
2019-01-02T22:29:35.641Z,98846.55
2019-01-02T22:34:33.847Z,98856.45
2019-01-02T22:39:29.760Z,98848.30
2019-01-02T22:44:27.998Z,98858.65
2019-01-02T22:49:23.908Z,98862.50
2019-01-02T22:54:31.824Z,98864.23
2019-01-02T22:59:29.198Z,98868.10
2019-01-02T23:04:45.431Z,98872.37
2019-01-02T23:09:49.558Z,98870.70
2019-01-02T23:15:13.177Z,98875.86
2019-01-02T23:20:33.881Z,98877.19
2019-01-02T23:25:54.647Z,98892.66
2019-01-02T23:31:08.308Z,98890.48
2019-01-02T23:36:30.076Z,98896.50
2019-01-02T23:41:58.200Z,98901.66
2019-01-02T23:47:14.543Z,98905.09
2019-01-02T23:52:38.603Z,98900.39
2019-01-02T23:57:52.403Z,98909.41
